sensor_id;sensor_type;location;lat;lon;timestamp;pressure;altitude;pressure_sealevel;temperature;humidity
32789;BME280;19141;48.980;8.410;2023-03-20T05:22:32;100620.94;;;8.69;100.00
32789;BME280;19141;48.980;8.410;2023-03-20T05:25:32;100611.53;;;8.75;100.00
32789;BME280;19141;48.980;8.410;2023-03-20T05:28:18;100616.00;;;8.75;100.00
32789;BME280;19141;48.980;8.410;2023-03-20T05:31:05;100619.19;;;8.78;100.00
32789;BME280;19141;48.980;8.410;2023-03-20T05:33:58;100623.03;;;8.84;100.00
32789;BME280;19141;48.980;8.410;2023-03-20T05:36:44;100629.19;;;8.84;100.00
32789;BME280;19141;48.980;8.410;2023-03-20T05:39:31;100635.03;;;8.88;100.00
32789;BME280;19141;48.980;8.410;2023-03-20T05:42:17;100630.72;;;8.87;100.00
32789;BME280;19141;48.980;8.410;2023-03-20T05:44:42;100633.38;;;8.87;100.00
32789;BME280;19141;48.980;8.410;2023-03-20T05:47:36;100637.00;;;8.86;100.00
32789;BME280;19141;48.980;8.410;2023-03-20T05:50:20;100643.69;;;8.90;100.00
32789;BME280;19141;48.980;8.410;2023-03-20T05:52:53;100643.53;;;8.91;100.00
32789;BME280;19141;48.980;8.410;2023-03-20T05:55:41;100648.16;;;8.89;100.00
32789;BME280;19141;48.980;8.410;2023-03-20T05:58:25;100645.19;;;8.92;100.00
32789;BME280;19141;48.980;8.410;2023-03-20T06:01:02;100638.06;;;8.93;100.00
32789;BME280;19141;48.980;8.410;2023-03-20T06:03:55;100632.00;;;9.01;100.00
32789;BME280;19141;48.980;8.410;2023-03-20T06:06:41;100633.28;;;8.96;100.00
32789;BME280;19141;48.980;8.410;2023-03-20T06:09:06;100634.66;;;9.01;100.00
32789;BME280;19141;48.980;8.410;2023-03-20T06:11:32;100632.34;;;9.06;100.00
32789;BME280;19141;48.980;8.410;2023-03-20T06:13:57;100633.06;;;9.08;100.00
32789;BME280;19141;48.980;8.410;2023-03-20T06:16:31;100641.91;;;9.16;100.00
32789;BME280;19141;48.980;8.410;2023-03-20T06:18:57;100643.97;;;9.22;100.00
32789;BME280;19141;48.980;8.410;2023-03-20T06:21:23;100638.31;;;9.25;100.00
32789;BME280;19141;48.980;8.410;2023-03-20T06:23:49;100643.38;;;9.37;100.00
32789;BME280;19141;48.980;8.410;2023-03-20T06:26:16;100644.50;;;9.52;100.00
32789;BME280;19141;48.980;8.410;2023-03-20T06:29:03;100642.31;;;9.47;100.00
32789;BME280;19141;48.980;8.410;2023-03-20T06:31:30;100660.13;;;9.55;100.00
32789;BME280;19141;48.980;8.410;2023-03-20T06:33:56;100669.63;;;9.58;100.00
32789;BME280;19141;48.980;8.410;2023-03-20T06:36:22;100676.63;;;9.59;100.00
32789;BME280;19141;48.980;8.410;2023-03-20T06:38:54;100678.75;;;9.55;100.00
32789;BME280;19141;48.980;8.410;2023-03-20T06:41:20;100681.63;;;9.62;100.00
32789;BME280;19141;48.980;8.410;2023-03-20T06:43:46;100684.44;;;9.60;100.00
32789;BME280;19141;48.980;8.410;2023-03-20T06:46:12;100688.09;;;9.59;100.00
32789;BME280;19141;48.980;8.410;2023-03-20T06:48:37;100684.59;;;9.59;100.00
32789;BME280;19141;48.980;8.410;2023-03-20T06:51:05;100683.44;;;9.61;100.00
32789;BME280;19141;48.980;8.410;2023-03-20T06:53:36;100694.72;;;9.55;100.00
32789;BME280;19141;48.980;8.410;2023-03-20T06:56:07;100696.69;;;9.53;100.00
32789;BME280;19141;48.980;8.410;2023-03-20T06:58:33;100698.38;;;9.54;100.00
32789;BME280;19141;48.980;8.410;2023-03-20T07:00:58;100696.38;;;9.56;100.00
32789;BME280;19141;48.980;8.410;2023-03-20T07:03:24;100700.69;;;9.57;100.00
32789;BME280;19141;48.980;8.410;2023-03-20T07:05:51;100700.41;;;9.60;100.00
32789;BME280;19141;48.980;8.410;2023-03-20T07:08:18;100701.44;;;9.67;100.00
32789;BME280;19141;48.980;8.410;2023-03-20T07:10:43;100701.28;;;9.69;100.00
32789;BME280;19141;48.980;8.410;2023-03-20T07:13:10;100694.97;;;9.70;100.00
32789;BME280;19141;48.980;8.410;2023-03-20T07:15:38;100696.84;;;9.77;100.00
32789;BME280;19141;48.980;8.410;2023-03-20T07:18:05;100696.22;;;9.84;100.00
32789;BME280;19141;48.980;8.410;2023-03-20T07:20:32;100704.72;;;9.87;100.00
32789;BME280;19141;48.980;8.410;2023-03-20T07:22:58;100706.72;;;9.85;100.00
32789;BME280;19141;48.980;8.410;2023-03-20T07:25:26;100699.88;;;9.83;100.00
32789;BME280;19141;48.980;8.410;2023-03-20T07:27:52;100708.84;;;9.82;100.00
32789;BME280;19141;48.980;8.410;2023-03-20T07:30:21;100706.03;;;9.83;100.00
32789;BME280;19141;48.980;8.410;2023-03-20T07:32:47;100707.84;;;9.83;100.00
32789;BME280;19141;48.980;8.410;2023-03-20T07:35:14;100705.03;;;9.84;100.00
32789;BME280;19141;48.980;8.410;2023-03-20T07:37:41;100691.22;;;9.81;100.00
32789;BME280;19141;48.980;8.410;2023-03-20T07:40:07;100692.06;;;9.81;100.00
32789;BME280;19141;48.980;8.410;2023-03-20T07:42:48;100689.22;;;9.83;100.00
32789;BME280;19141;48.980;8.410;2023-03-20T07:45:34;100690.59;;;9.87;100.00
32789;BME280;19141;48.980;8.410;2023-03-20T07:47:59;100695.31;;;10.01;100.00
32789;BME280;19141;48.980;8.410;2023-03-20T07:50:25;100690.72;;;10.11;100.00
32789;BME280;19141;48.980;8.410;2023-03-20T07:52:50;100694.31;;;10.28;100.00
32789;BME280;19141;48.980;8.410;2023-03-20T07:55:19;100685.38;;;10.45;100.00
32789;BME280;19141;48.980;8.410;2023-03-20T07:57:47;100685.59;;;10.60;100.00
32789;BME280;19141;48.980;8.410;2023-03-20T08:00:13;100677.97;;;10.81;100.00
32789;BME280;19141;48.980;8.410;2023-03-20T08:02:39;100682.16;;;11.00;100.00
32789;BME280;19141;48.980;8.410;2023-03-20T08:05:05;100685.50;;;11.19;98.68
32789;BME280;19141;48.980;8.410;2023-03-20T08:07:30;100691.34;;;11.22;97.36
32789;BME280;19141;48.980;8.410;2023-03-20T08:09:56;100688.50;;;11.32;96.55
32789;BME280;19141;48.980;8.410;2023-03-20T08:12:21;100676.16;;;11.39;94.84
32789;BME280;19141;48.980;8.410;2023-03-20T08:14:46;100681.16;;;11.50;93.17
32789;BME280;19141;48.980;8.410;2023-03-20T08:17:12;100688.50;;;11.40;91.90
32789;BME280;19141;48.980;8.410;2023-03-20T08:19:41;100692.16;;;11.47;92.58
32789;BME280;19141;48.980;8.410;2023-03-20T08:22:07;100693.47;;;11.67;91.38
32789;BME280;19141;48.980;8.410;2023-03-20T08:24:32;100694.94;;;11.78;92.17
32789;BME280;19141;48.980;8.410;2023-03-20T08:26:57;100695.97;;;11.69;87.02
32789;BME280;19141;48.980;8.410;2023-03-20T08:29:23;100698.47;;;11.71;88.02
32789;BME280;19141;48.980;8.410;2023-03-20T08:31:48;100701.47;;;11.76;88.79
32789;BME280;19141;48.980;8.410;2023-03-20T08:34:14;100706.50;;;11.87;87.73
32789;BME280;19141;48.980;8.410;2023-03-20T08:36:40;100709.78;;;11.97;88.75
32789;BME280;19141;48.980;8.410;2023-03-20T08:39:06;100707.72;;;12.15;88.59
32789;BME280;19141;48.980;8.410;2023-03-20T08:41:33;100708.69;;;12.22;87.92
32789;BME280;19141;48.980;8.410;2023-03-20T08:43:58;100716.06;;;12.20;86.02
32789;BME280;19141;48.980;8.410;2023-03-20T08:46:23;100712.75;;;12.10;83.57
32789;BME280;19141;48.980;8.410;2023-03-20T08:48:50;100723.94;;;12.06;83.10
32789;BME280;19141;48.980;8.410;2023-03-20T08:51:15;100717.97;;;11.95;83.17
32789;BME280;19141;48.980;8.410;2023-03-20T08:53:41;100728.97;;;12.01;85.09
32789;BME280;19141;48.980;8.410;2023-03-20T08:56:07;100734.22;;;12.25;83.99
32789;BME280;19141;48.980;8.410;2023-03-20T08:58:32;100732.63;;;12.08;83.47
32789;BME280;19141;48.980;8.410;2023-03-20T09:01:03;100733.75;;;12.21;84.33
32789;BME280;19141;48.980;8.410;2023-03-20T09:03:29;100733.56;;;12.23;85.27
32789;BME280;19141;48.980;8.410;2023-03-20T09:05:54;100720.50;;;12.36;85.31
32789;BME280;19141;48.980;8.410;2023-03-20T09:08:20;100719.31;;;12.47;85.46
32789;BME280;19141;48.980;8.410;2023-03-20T09:10:47;100725.94;;;12.51;82.84
32789;BME280;19141;48.980;8.410;2023-03-20T09:13:15;100730.31;;;12.44;81.90
32789;BME280;19141;48.980;8.410;2023-03-20T09:15:41;100732.97;;;12.44;82.35
32789;BME280;19141;48.980;8.410;2023-03-20T09:18:07;100728.47;;;12.53;82.02
32789;BME280;19141;48.980;8.410;2023-03-20T09:20:33;100735.50;;;12.45;80.75
32789;BME280;19141;48.980;8.410;2023-03-20T09:22:58;100745.28;;;12.61;79.37
32789;BME280;19141;48.980;8.410;2023-03-20T09:25:23;100745.97;;;12.55;79.87
32789;BME280;19141;48.980;8.410;2023-03-20T09:27:52;100745.31;;;12.84;80.07
32789;BME280;19141;48.980;8.410;2023-03-20T09:30:22;100752.47;;;12.92;81.07
32789;BME280;19141;48.980;8.410;2023-03-20T09:32:49;100754.72;;;13.03;80.49
32789;BME280;19141;48.980;8.410;2023-03-20T09:35:15;100748.13;;;13.22;79.16
32789;BME280;19141;48.980;8.410;2023-03-20T09:37:41;100761.69;;;13.20;76.85
32789;BME280;19141;48.980;8.410;2023-03-20T09:40:07;100770.63;;;13.04;77.18
32789;BME280;19141;48.980;8.410;2023-03-20T09:42:40;100765.94;;;13.29;76.16
32789;BME280;19141;48.980;8.410;2023-03-20T09:48:45;100769.47;;;12.99;75.94
32789;BME280;19141;48.980;8.410;2023-03-20T09:51:18;100774.06;;;13.13;75.37
32789;BME280;19141;48.980;8.410;2023-03-20T09:53:54;100784.75;;;13.21;76.25
32789;BME280;19141;48.980;8.410;2023-03-20T09:56:24;100772.50;;;13.27;76.72
32789;BME280;19141;48.980;8.410;2023-03-20T09:58:57;100771.22;;;13.61;73.53
32789;BME280;19141;48.980;8.410;2023-03-20T10:01:27;100762.28;;;14.06;75.94
32789;BME280;19141;48.980;8.410;2023-03-20T10:03:58;100767.84;;;14.63;68.84
32789;BME280;19141;48.980;8.410;2023-03-20T10:06:24;100756.44;;;14.76;67.72
32789;BME280;19141;48.980;8.410;2023-03-20T10:08:50;100756.13;;;14.86;65.62
32789;BME280;19141;48.980;8.410;2023-03-20T10:23:07;100749.63;;;14.74;61.90
32789;BME280;19141;48.980;8.410;2023-03-20T10:25:45;100745.91;;;14.75;61.94
32789;BME280;19141;48.980;8.410;2023-03-20T10:28:20;100742.06;;;14.62;62.84
32789;BME280;19141;48.980;8.410;2023-03-20T10:31:19;100743.13;;;14.83;63.08
32789;BME280;19141;48.980;8.410;2023-03-20T10:40:18;100739.47;;;15.27;60.40
32789;BME280;19141;48.980;8.410;2023-03-20T10:42:47;100741.34;;;15.11;60.24
32789;BME280;19141;48.980;8.410;2023-03-20T10:48:19;100734.47;;;15.02;59.67
32789;BME280;19141;48.980;8.410;2023-03-20T10:51:04;100735.59;;;15.57;58.21
32789;BME280;19141;48.980;8.410;2023-03-20T10:56:09;100734.28;;;16.72;54.60
32789;BME280;19141;48.980;8.410;2023-03-20T10:58:40;100727.59;;;17.55;52.79
32789;BME280;19141;48.980;8.410;2023-03-20T11:01:08;100721.47;;;18.39;51.46
32789;BME280;19141;48.980;8.410;2023-03-20T11:03:33;100715.84;;;19.49;48.66
32789;BME280;19141;48.980;8.410;2023-03-20T11:06:25;100720.75;;;19.65;46.74
32789;BME280;19141;48.980;8.410;2023-03-20T11:08:53;100712.66;;;19.02;44.87
32789;BME280;19141;48.980;8.410;2023-03-20T11:11:26;100723.03;;;18.02;47.02
32789;BME280;19141;48.980;8.410;2023-03-20T11:13:52;100716.59;;;17.37;47.89
32789;BME280;19141;48.980;8.410;2023-03-20T11:16:30;100712.78;;;16.78;49.75
32789;BME280;19141;48.980;8.410;2023-03-20T11:19:05;100711.41;;;16.54;52.34
32789;BME280;19141;48.980;8.410;2023-03-20T11:21:31;100717.59;;;16.07;53.93
32789;BME280;19141;48.980;8.410;2023-03-20T11:23:57;100717.06;;;15.90;56.16
32789;BME280;19141;48.980;8.410;2023-03-20T11:26:38;100705.19;;;15.71;56.32
32789;BME280;19141;48.980;8.410;2023-03-20T11:29:51;100703.91;;;15.67;58.03
32789;BME280;19141;48.980;8.410;2023-03-20T11:31:51;100709.66;;;15.43;58.26
32789;BME280;19141;48.980;8.410;2023-03-20T11:37:00;100699.03;;;15.56;55.95
32789;BME280;19141;48.980;8.410;2023-03-20T11:39:30;100704.47;;;15.63;56.75
32789;BME280;19141;48.980;8.410;2023-03-20T11:42:00;100701.66;;;15.50;57.47
32789;BME280;19141;48.980;8.410;2023-03-20T11:44:30;100694.00;;;15.46;56.48
32789;BME280;19141;48.980;8.410;2023-03-20T11:47:11;100697.50;;;15.68;56.53
32789;BME280;19141;48.980;8.410;2023-03-20T11:49:55;100691.75;;;16.06;56.34
32789;BME280;19141;48.980;8.410;2023-03-20T11:52:24;100700.13;;;16.24;52.00
32789;BME280;19141;48.980;8.410;2023-03-20T11:54:54;100694.41;;;16.41;53.25
32789;BME280;19141;48.980;8.410;2023-03-20T11:57:40;100690.84;;;16.88;52.53
32789;BME280;19141;48.980;8.410;2023-03-20T12:00:18;100693.41;;;17.36;51.80
32789;BME280;19141;48.980;8.410;2023-03-20T12:02:44;100697.16;;;17.55;52.21
32789;BME280;19141;48.980;8.410;2023-03-20T12:05:35;100690.50;;;17.31;50.94
32789;BME280;19141;48.980;8.410;2023-03-20T12:08:23;100693.34;;;16.90;50.75
32789;BME280;19141;48.980;8.410;2023-03-20T12:10:58;100688.00;;;16.48;50.57
32789;BME280;19141;48.980;8.410;2023-03-20T12:13:34;100696.81;;;16.29;53.10
32789;BME280;19141;48.980;8.410;2023-03-20T12:16:09;100676.28;;;16.15;54.21
32789;BME280;19141;48.980;8.410;2023-03-20T12:18:44;100673.34;;;16.44;52.91
32789;BME280;19141;48.980;8.410;2023-03-20T12:27:08;100668.91;;;16.71;52.20
32789;BME280;19141;48.980;8.410;2023-03-20T12:29:51;100666.06;;;17.26;51.99
32789;BME280;19141;48.980;8.410;2023-03-20T12:32:25;100658.88;;;18.17;49.30
32789;BME280;19141;48.980;8.410;2023-03-20T12:35:14;100661.22;;;18.59;48.22
32789;BME280;19141;48.980;8.410;2023-03-20T12:37:41;100650.81;;;18.62;45.87
32789;BME280;19141;48.980;8.410;2023-03-20T12:40:17;100649.25;;;18.86;46.18
32789;BME280;19141;48.980;8.410;2023-03-20T12:42:48;100650.94;;;17.71;46.21
32789;BME280;19141;48.980;8.410;2023-03-20T12:45:22;100644.69;;;17.90;46.77
32789;BME280;19141;48.980;8.410;2023-03-20T12:48:23;100641.13;;;17.97;46.74
32789;BME280;19141;48.980;8.410;2023-03-20T12:51:10;100641.97;;;17.97;47.84
32789;BME280;19141;48.980;8.410;2023-03-20T12:53:54;100637.06;;;17.61;47.94
32789;BME280;19141;48.980;8.410;2023-03-20T13:01:51;100629.19;;;17.33;47.27
32789;BME280;19141;48.980;8.410;2023-03-20T13:15:40;100610.31;;;16.06;49.65
32789;BME280;19141;48.980;8.410;2023-03-20T13:21:09;100608.63;;;15.98;49.87
32789;BME280;19141;48.980;8.410;2023-03-20T13:26:29;100601.56;;;15.90;50.15
32789;BME280;19141;48.980;8.410;2023-03-20T13:29:14;100597.59;;;15.80;51.20
32789;BME280;19141;48.980;8.410;2023-03-20T13:34:44;100609.06;;;16.08;49.84
32789;BME280;19141;48.980;8.410;2023-03-20T13:39:47;100598.47;;;16.54;48.81
32789;BME280;19141;48.980;8.410;2023-03-20T13:42:18;100601.41;;;16.66;48.15
32789;BME280;19141;48.980;8.410;2023-03-20T13:44:46;100606.00;;;16.92;48.53
32789;BME280;19141;48.980;8.410;2023-03-20T13:47:17;100617.22;;;17.16;45.97
32789;BME280;19141;48.980;8.410;2023-03-20T13:49:56;100600.84;;;16.91;45.77
32789;BME280;19141;48.980;8.410;2023-03-20T13:52:28;100604.34;;;16.91;47.10
32789;BME280;19141;48.980;8.410;2023-03-20T13:55:07;100596.88;;;16.80;48.14
32789;BME280;19141;48.980;8.410;2023-03-20T14:00:21;100593.16;;;16.88;48.63
32789;BME280;19141;48.980;8.410;2023-03-20T14:03:12;100583.22;;;16.95;47.77
32789;BME280;19141;48.980;8.410;2023-03-20T14:05:41;100580.13;;;16.78;48.67
32789;BME280;19141;48.980;8.410;2023-03-20T14:13:29;100562.25;;;16.31;47.58
32789;BME280;19141;48.980;8.410;2023-03-20T14:15:56;100569.53;;;16.50;48.81
32789;BME280;19141;48.980;8.410;2023-03-20T14:18:25;100568.22;;;16.26;49.90
32789;BME280;19141;48.980;8.410;2023-03-20T14:20:53;100573.00;;;16.31;49.19
32789;BME280;19141;48.980;8.410;2023-03-20T14:23:35;100566.84;;;15.89;49.53
32789;BME280;19141;48.980;8.410;2023-03-20T14:26:18;100569.53;;;15.95;49.71
32789;BME280;19141;48.980;8.410;2023-03-20T14:31:36;100568.38;;;15.63;51.18
32789;BME280;19141;48.980;8.410;2023-03-20T14:36:59;100570.59;;;15.60;51.79
32789;BME280;19141;48.980;8.410;2023-03-20T14:39:39;100566.94;;;15.67;51.35
32789;BME280;19141;48.980;8.410;2023-03-20T14:47:57;100562.66;;;15.17;52.68
32789;BME280;19141;48.980;8.410;2023-03-20T14:50:31;100565.34;;;15.17;52.46
32789;BME280;19141;48.980;8.410;2023-03-20T14:58:04;100571.59;;;14.96;52.22
32789;BME280;19141;48.980;8.410;2023-03-20T15:00:49;100558.34;;;14.88;53.15
32789;BME280;19141;48.980;8.410;2023-03-20T15:03:15;100565.25;;;14.76;53.26
32789;BME280;19141;48.980;8.410;2023-03-20T15:05:42;100555.75;;;14.80;52.98
32789;BME280;19141;48.980;8.410;2023-03-20T15:08:09;100560.19;;;14.66;54.27
32789;BME280;19141;48.980;8.410;2023-03-20T15:10:43;100566.63;;;14.72;53.71
32789;BME280;19141;48.980;8.410;2023-03-20T15:13:10;100557.41;;;14.74;54.65
32789;BME280;19141;48.980;8.410;2023-03-20T15:15:37;100553.63;;;14.69;53.94
32789;BME280;19141;48.980;8.410;2023-03-20T15:18:09;100554.94;;;14.79;53.60
32789;BME280;19141;48.980;8.410;2023-03-20T15:20:35;100560.69;;;14.76;53.51
32789;BME280;19141;48.980;8.410;2023-03-20T15:23:01;100563.06;;;14.64;54.08
32789;BME280;19141;48.980;8.410;2023-03-20T15:25:38;100561.53;;;14.77;53.05
32789;BME280;19141;48.980;8.410;2023-03-20T15:28:10;100563.75;;;14.73;54.91
32789;BME280;19141;48.980;8.410;2023-03-20T15:30:37;100571.03;;;14.79;53.62
32789;BME280;19141;48.980;8.410;2023-03-20T15:33:04;100569.06;;;14.88;54.16
32789;BME280;19141;48.980;8.410;2023-03-20T15:35:30;100575.69;;;14.92;53.20
32789;BME280;19141;48.980;8.410;2023-03-20T15:38:02;100569.81;;;14.82;52.02
32789;BME280;19141;48.980;8.410;2023-03-20T15:40:30;100565.06;;;14.56;54.24
32789;BME280;19141;48.980;8.410;2023-03-20T15:43:09;100565.19;;;14.69;53.16
32789;BME280;19141;48.980;8.410;2023-03-20T15:45:39;100562.94;;;14.51;53.27
32789;BME280;19141;48.980;8.410;2023-03-20T15:48:06;100567.88;;;14.48;54.45
32789;BME280;19141;48.980;8.410;2023-03-20T15:50:37;100562.50;;;14.48;54.16
32789;BME280;19141;48.980;8.410;2023-03-20T15:53:04;100559.88;;;14.39;56.14
32789;BME280;19141;48.980;8.410;2023-03-20T15:55:31;100558.38;;;14.30;55.05
32789;BME280;19141;48.980;8.410;2023-03-20T15:57:58;100553.63;;;14.32;54.43
32789;BME280;19141;48.980;8.410;2023-03-20T16:00:30;100559.00;;;14.32;55.47
32789;BME280;19141;48.980;8.410;2023-03-20T16:02:58;100555.16;;;14.20;56.35
32789;BME280;19141;48.980;8.410;2023-03-20T16:05:27;100554.25;;;14.13;55.67
32789;BME280;19141;48.980;8.410;2023-03-20T16:07:53;100560.34;;;14.22;54.61
32789;BME280;19141;48.980;8.410;2023-03-20T16:10:26;100550.31;;;14.09;55.85
32789;BME280;19141;48.980;8.410;2023-03-20T16:12:52;100544.94;;;14.09;56.21
32789;BME280;19141;48.980;8.410;2023-03-20T16:15:24;100543.09;;;14.09;55.87
32789;BME280;19141;48.980;8.410;2023-03-20T16:17:54;100538.78;;;13.94;55.32
32789;BME280;19141;48.980;8.410;2023-03-20T16:20:21;100539.09;;;13.84;56.27
32789;BME280;19141;48.980;8.410;2023-03-20T16:22:48;100529.47;;;13.90;56.37
32789;BME280;19141;48.980;8.410;2023-03-20T16:25:17;100536.41;;;13.84;56.69
32789;BME280;19141;48.980;8.410;2023-03-20T16:27:44;100532.16;;;13.75;57.45
32789;BME280;19141;48.980;8.410;2023-03-20T16:30:21;100539.91;;;13.84;56.41
32789;BME280;19141;48.980;8.410;2023-03-20T16:32:53;100542.59;;;13.84;57.03
32789;BME280;19141;48.980;8.410;2023-03-20T16:35:23;100530.22;;;13.69;58.02
32789;BME280;19141;48.980;8.410;2023-03-20T16:37:55;100541.59;;;13.71;58.97
32789;BME280;19141;48.980;8.410;2023-03-20T16:42:52;100533.38;;;13.72;57.34
32789;BME280;19141;48.980;8.410;2023-03-20T16:45:30;100527.66;;;13.61;58.12
32789;BME280;19141;48.980;8.410;2023-03-20T16:50:54;100535.91;;;13.44;58.98
32789;BME280;19141;48.980;8.410;2023-03-20T16:53:21;100533.19;;;13.29;59.03
32789;BME280;19141;48.980;8.410;2023-03-20T16:55:50;100535.03;;;13.29;59.55
32789;BME280;19141;48.980;8.410;2023-03-20T16:58:22;100540.22;;;13.30;59.64
32789;BME280;19141;48.980;8.410;2023-03-20T17:01:01;100551.66;;;13.24;60.13
32789;BME280;19141;48.980;8.410;2023-03-20T17:06:27;100546.72;;;13.13;60.04
32789;BME280;19141;48.980;8.410;2023-03-20T17:09:09;100539.97;;;13.02;60.20
32789;BME280;19141;48.980;8.410;2023-03-20T17:11:45;100541.34;;;12.98;62.08
32789;BME280;19141;48.980;8.410;2023-03-20T17:14:11;100548.97;;;12.87;61.92
32789;BME280;19141;48.980;8.410;2023-03-20T17:16:37;100546.19;;;12.80;61.96
32789;BME280;19141;48.980;8.410;2023-03-20T17:19:13;100549.06;;;12.79;62.62
32789;BME280;19141;48.980;8.410;2023-03-20T17:21:38;100551.78;;;12.70;62.85
32789;BME280;19141;48.980;8.410;2023-03-20T17:24:04;100548.47;;;12.68;63.01
32789;BME280;19141;48.980;8.410;2023-03-20T17:26:29;100551.50;;;12.65;63.32
32789;BME280;19141;48.980;8.410;2023-03-20T17:28:55;100554.91;;;12.59;64.01
32789;BME280;19141;48.980;8.410;2023-03-20T17:31:20;100569.25;;;12.58;64.24
32789;BME280;19141;48.980;8.410;2023-03-20T17:33:46;100563.91;;;12.58;64.27
32789;BME280;19141;48.980;8.410;2023-03-20T17:36:26;100564.09;;;12.57;64.30
32789;BME280;19141;48.980;8.410;2023-03-20T17:38:53;100570.97;;;12.51;64.61
32789;BME280;19141;48.980;8.410;2023-03-20T17:41:19;100574.00;;;12.48;65.76
32789;BME280;19141;48.980;8.410;2023-03-20T17:43:45;100567.00;;;12.47;65.27
32789;BME280;19141;48.980;8.410;2023-03-20T17:46:19;100568.72;;;12.40;65.49
32789;BME280;19141;48.980;8.410;2023-03-20T17:48:48;100577.06;;;12.37;66.39
32789;BME280;19141;48.980;8.410;2023-03-20T17:51:14;100567.09;;;12.31;65.74
32789;BME280;19141;48.980;8.410;2023-03-20T17:53:40;100565.63;;;12.28;65.63
32789;BME280;19141;48.980;8.410;2023-03-20T17:56:13;100569.00;;;12.22;65.97
32789;BME280;19141;48.980;8.410;2023-03-20T17:58:39;100577.34;;;12.19;66.50
32789;BME280;19141;48.980;8.410;2023-03-20T18:01:06;100570.53;;;12.16;66.22
32789;BME280;19141;48.980;8.410;2023-03-20T18:03:33;100579.06;;;12.12;66.98
32789;BME280;19141;48.980;8.410;2023-03-20T18:06:00;100575.56;;;12.11;67.67
32789;BME280;19141;48.980;8.410;2023-03-20T18:08:25;100578.22;;;12.11;67.65
32789;BME280;19141;48.980;8.410;2023-03-20T18:10:52;100584.75;;;12.09;67.93
32789;BME280;19141;48.980;8.410;2023-03-20T18:13:19;100568.91;;;12.07;67.90
32789;BME280;19141;48.980;8.410;2023-03-20T18:15:46;100575.72;;;12.10;68.07
32789;BME280;19141;48.980;8.410;2023-03-20T18:18:14;100576.56;;;12.10;68.39
32789;BME280;19141;48.980;8.410;2023-03-20T18:20:40;100582.59;;;12.04;68.00
32789;BME280;19141;48.980;8.410;2023-03-20T18:23:06;100575.78;;;12.02;67.99
32789;BME280;19141;48.980;8.410;2023-03-20T18:25:32;100572.59;;;12.06;68.07
32789;BME280;19141;48.980;8.410;2023-03-20T18:27:59;100581.94;;;12.02;68.46
32789;BME280;19141;48.980;8.410;2023-03-20T18:30:32;100575.97;;;12.00;68.86
32789;BME280;19141;48.980;8.410;2023-03-20T18:32:59;100579.63;;;11.99;68.53
32789;BME280;19141;48.980;8.410;2023-03-20T18:35:25;100569.47;;;11.94;68.24
32789;BME280;19141;48.980;8.410;2023-03-20T18:37:50;100566.81;;;11.94;68.60
32789;BME280;19141;48.980;8.410;2023-03-20T18:40:19;100572.84;;;11.88;68.94
32789;BME280;19141;48.980;8.410;2023-03-20T18:42:45;100574.00;;;11.86;69.20
32789;BME280;19141;48.980;8.410;2023-03-20T18:45:11;100576.03;;;11.84;69.24
32789;BME280;19141;48.980;8.410;2023-03-20T18:47:37;100560.03;;;11.76;68.69
32789;BME280;19141;48.980;8.410;2023-03-20T18:50:03;100564.34;;;11.77;68.60
32789;BME280;19141;48.980;8.410;2023-03-20T18:52:29;100560.34;;;11.73;68.87
32789;BME280;19141;48.980;8.410;2023-03-20T18:54:55;100560.72;;;11.69;69.28
32789;BME280;19141;48.980;8.410;2023-03-20T18:57:20;100567.72;;;11.71;69.73
32789;BME280;19141;48.980;8.410;2023-03-20T18:59:46;100574.88;;;11.70;70.43
32789;BME280;19141;48.980;8.410;2023-03-20T19:02:11;100574.38;;;11.66;70.21
32789;BME280;19141;48.980;8.410;2023-03-20T19:04:37;100577.41;;;11.63;70.91
32789;BME280;19141;48.980;8.410;2023-03-20T19:07:02;100575.75;;;11.62;70.93
32789;BME280;19141;48.980;8.410;2023-03-20T19:09:27;100580.41;;;11.60;70.25
32789;BME280;19141;48.980;8.410;2023-03-20T19:11:53;100569.44;;;11.55;70.67
32789;BME280;19141;48.980;8.410;2023-03-20T19:14:18;100567.59;;;11.56;71.11
32789;BME280;19141;48.980;8.410;2023-03-20T19:16:44;100571.13;;;11.48;71.50
32789;BME280;19141;48.980;8.410;2023-03-20T19:19:13;100562.63;;;11.45;70.97
32789;BME280;19141;48.980;8.410;2023-03-20T19:21:39;100567.63;;;11.39;72.00
32789;BME280;19141;48.980;8.410;2023-03-20T19:24:06;100573.78;;;11.40;72.46
32789;BME280;19141;48.980;8.410;2023-03-20T19:26:34;100571.66;;;11.35;72.72
32789;BME280;19141;48.980;8.410;2023-03-20T19:29:00;100565.50;;;11.35;72.94
32789;BME280;19141;48.980;8.410;2023-03-20T19:31:26;100574.81;;;11.31;73.39
32789;BME280;19141;48.980;8.410;2023-03-20T19:33:52;100578.69;;;11.28;73.65
32789;BME280;19141;48.980;8.410;2023-03-20T19:38:52;100569.53;;;11.23;74.82
32789;BME280;19141;48.980;8.410;2023-03-20T19:41:18;100573.34;;;11.20;74.33
32789;BME280;19141;48.980;8.410;2023-03-20T19:43:44;100577.19;;;11.18;75.68
32789;BME280;19141;48.980;8.410;2023-03-20T19:46:13;100574.69;;;11.16;75.30
32789;BME280;19141;48.980;8.410;2023-03-20T19:48:44;100565.84;;;11.07;77.31
32789;BME280;19141;48.980;8.410;2023-03-20T19:51:21;100569.53;;;11.06;78.22
32789;BME280;19141;48.980;8.410;2023-03-20T19:53:48;100561.72;;;11.05;78.14
32789;BME280;19141;48.980;8.410;2023-03-20T19:56:16;100563.72;;;11.03;78.91
32789;BME280;19141;48.980;8.410;2023-03-20T19:58:41;100575.88;;;11.05;78.02
32789;BME280;19141;48.980;8.410;2023-03-20T20:01:12;100560.53;;;10.99;79.33
32789;BME280;19141;48.980;8.410;2023-03-20T20:03:39;100568.53;;;10.99;79.26
32789;BME280;19141;48.980;8.410;2023-03-20T20:06:04;100560.38;;;10.93;79.92
32789;BME280;19141;48.980;8.410;2023-03-20T20:08:30;100570.56;;;10.97;80.42